Lombardville, Illinois
Current Conditions -  °F | °C
As of 1:50 AM on Friday 19 Dec 2014 (Local Time) from KC75 Reporting Station
Clear Clear  
Wind Chill: -10°   Ceiling: Unl
Heat Index: -10°   Visibility: 7mi
Dew Point: -11°   Wind: 0mph
Humidity: 90%   Direction: NA
Pressure: 30.3"   Gusts: NA
Location:  41.1472°N, 89.6399°W
Report Text: KC75 190750Z AUTO 00000KT 7SM CLR M09/M11 A3030 RMK AO2 T10951108
Loading
Personal Weather Stations






























Interactive Weather Map New forecast layout! Learn more

10-Day Weather Forecast

Advertisements
Track Severe Weather on mobile